sensor_id;sensor_type;location;lat;lon;timestamp;pressure;altitude;pressure_sealevel;temperature;humidity
23953;BME280;12163;49.316;6.092;2023-02-17T00:01:18;100282.75;;;10.65;84.96
23953;BME280;12163;49.316;6.092;2023-02-17T00:03:46;100280.63;;;10.67;84.74
23953;BME280;12163;49.316;6.092;2023-02-17T00:06:17;100284.13;;;10.67;85.21
23953;BME280;12163;49.316;6.092;2023-02-17T00:08:45;100283.03;;;10.68;84.81
23953;BME280;12163;49.316;6.092;2023-02-17T00:11:12;100285.47;;;10.70;85.34
23953;BME280;12163;49.316;6.092;2023-02-17T00:13:39;100285.72;;;10.68;85.31
23953;BME280;12163;49.316;6.092;2023-02-17T00:16:20;100290.31;;;10.63;86.01
23953;BME280;12163;49.316;6.092;2023-02-17T00:18:51;100278.44;;;10.64;86.30
23953;BME280;12163;49.316;6.092;2023-02-17T00:21:20;100284.41;;;10.66;86.50
23953;BME280;12163;49.316;6.092;2023-02-17T00:23:48;100287.63;;;10.68;86.25
23953;BME280;12163;49.316;6.092;2023-02-17T00:26:16;100280.06;;;10.70;86.42
23953;BME280;12163;49.316;6.092;2023-02-17T00:28:43;100281.41;;;10.72;86.27
23953;BME280;12163;49.316;6.092;2023-02-17T00:31:13;100275.75;;;10.74;85.86
23953;BME280;12163;49.316;6.092;2023-02-17T00:33:40;100279.25;;;10.74;85.99
23953;BME280;12163;49.316;6.092;2023-02-17T00:36:11;100275.22;;;10.72;86.58
23953;BME280;12163;49.316;6.092;2023-02-17T00:38:38;100270.06;;;10.70;86.97
23953;BME280;12163;49.316;6.092;2023-02-17T00:41:04;100277.09;;;10.71;86.96
23953;BME280;12163;49.316;6.092;2023-02-17T00:43:31;100268.19;;;10.71;87.05
23953;BME280;12163;49.316;6.092;2023-02-17T00:45:58;100269.81;;;10.72;87.48
23953;BME280;12163;49.316;6.092;2023-02-17T00:48:24;100264.69;;;10.70;87.57
23953;BME280;12163;49.316;6.092;2023-02-17T00:50:51;100266.03;;;10.68;87.57
23953;BME280;12163;49.316;6.092;2023-02-17T00:53:18;100260.66;;;10.68;87.61
23953;BME280;12163;49.316;6.092;2023-02-17T00:55:44;100266.84;;;10.68;88.13
23953;BME280;12163;49.316;6.092;2023-02-17T00:58:11;100260.66;;;10.68;87.68
23953;BME280;12163;49.316;6.092;2023-02-17T01:00:37;100266.59;;;10.70;88.03
23953;BME280;12163;49.316;6.092;2023-02-17T01:03:04;100263.88;;;10.70;88.25
23953;BME280;12163;49.316;6.092;2023-02-17T01:05:31;100254.69;;;10.71;87.71
23953;BME280;12163;49.316;6.092;2023-02-17T01:07:58;100258.47;;;10.70;87.79
23953;BME280;12163;49.316;6.092;2023-02-17T01:10:24;100253.34;;;10.68;88.30
23953;BME280;12163;49.316;6.092;2023-02-17T01:12:51;100258.47;;;10.70;88.46
23953;BME280;12163;49.316;6.092;2023-02-17T01:15:18;100250.94;;;10.72;88.40
23953;BME280;12163;49.316;6.092;2023-02-17T01:17:44;100254.69;;;10.71;88.02
23953;BME280;12163;49.316;6.092;2023-02-17T01:20:11;100246.31;;;10.72;88.00
23953;BME280;12163;49.316;6.092;2023-02-17T01:22:38;100245.25;;;10.73;88.14
23953;BME280;12163;49.316;6.092;2023-02-17T01:25:05;100240.91;;;10.72;88.07
23953;BME280;12163;49.316;6.092;2023-02-17T01:27:32;100240.91;;;10.72;88.37
23953;BME280;12163;49.316;6.092;2023-02-17T01:29:59;100251.47;;;10.74;87.72
23953;BME280;12163;49.316;6.092;2023-02-17T01:32:25;100245.78;;;10.75;88.02
23953;BME280;12163;49.316;6.092;2023-02-17T01:34:52;100241.75;;;10.73;88.16
23953;BME280;12163;49.316;6.092;2023-02-17T01:37:19;100235.53;;;10.72;87.99
23953;BME280;12163;49.316;6.092;2023-02-17T01:39:45;100232.03;;;10.72;88.02
23953;BME280;12163;49.316;6.092;2023-02-17T01:42:16;100243.91;;;10.71;88.20
23953;BME280;12163;49.316;6.092;2023-02-17T01:50:19;100219.63;;;10.71;87.97
23953;BME280;12163;49.316;6.092;2023-02-17T01:52:46;100218.00;;;10.75;88.59
23953;BME280;12163;49.316;6.092;2023-02-17T01:55:17;100230.41;;;10.76;88.36
23953;BME280;12163;49.316;6.092;2023-02-17T01:57:45;100227.16;;;10.74;88.61
23953;BME280;12163;49.316;6.092;2023-02-17T02:00:14;100225.56;;;10.73;88.78
23953;BME280;12163;49.316;6.092;2023-02-17T02:02:45;100219.31;;;10.72;88.14
23953;BME280;12163;49.316;6.092;2023-02-17T02:05:13;100219.88;;;10.69;88.40
23953;BME280;12163;49.316;6.092;2023-02-17T02:07:42;100209.34;;;10.68;88.92
23953;BME280;12163;49.316;6.092;2023-02-17T02:10:11;100210.16;;;10.68;88.90
23953;BME280;12163;49.316;6.092;2023-02-17T02:12:40;100203.41;;;10.71;88.66
23953;BME280;12163;49.316;6.092;2023-02-17T02:15:08;100210.44;;;10.72;88.42
23953;BME280;12163;49.316;6.092;2023-02-17T02:18:02;100191.78;;;10.70;88.17
23953;BME280;12163;49.316;6.092;2023-02-17T02:23:20;100195.31;;;10.71;88.39
23953;BME280;12163;49.316;6.092;2023-02-17T02:31:27;100186.94;;;10.72;88.16
23953;BME280;12163;49.316;6.092;2023-02-17T02:33:59;100186.69;;;10.74;88.12
23953;BME280;12163;49.316;6.092;2023-02-17T02:36:45;100193.16;;;10.73;88.49
23953;BME280;12163;49.316;6.092;2023-02-17T02:39:17;100184.25;;;10.77;88.41
23953;BME280;12163;49.316;6.092;2023-02-17T02:41:49;100182.34;;;10.73;88.23
23953;BME280;12163;49.316;6.092;2023-02-17T02:44:19;100176.97;;;10.73;88.16
23953;BME280;12163;49.316;6.092;2023-02-17T02:47:05;100171.28;;;10.69;88.56
23953;BME280;12163;49.316;6.092;2023-02-17T02:49:34;100165.88;;;10.69;88.63
23953;BME280;12163;49.316;6.092;2023-02-17T03:00:09;100162.38;;;10.64;89.11
23953;BME280;12163;49.316;6.092;2023-02-17T03:02:56;100155.34;;;10.63;88.83
23953;BME280;12163;49.316;6.092;2023-02-17T03:05:30;100157.78;;;10.64;88.97
23953;BME280;12163;49.316;6.092;2023-02-17T03:08:13;100158.34;;;10.61;89.70
23953;BME280;12163;49.316;6.092;2023-02-17T03:10:49;100154.81;;;10.61;89.42
23953;BME280;12163;49.316;6.092;2023-02-17T03:13:17;100154.56;;;10.62;89.68
23953;BME280;12163;49.316;6.092;2023-02-17T03:15:45;100155.91;;;10.60;89.75
23953;BME280;12163;49.316;6.092;2023-02-17T03:18:12;100144.03;;;10.61;89.62
23953;BME280;12163;49.316;6.092;2023-02-17T03:21:03;100139.72;;;10.60;89.80
23953;BME280;12163;49.316;6.092;2023-02-17T03:23:31;100143.47;;;10.59;89.79
23953;BME280;12163;49.316;6.092;2023-02-17T03:25:58;100124.88;;;10.57;90.47
23953;BME280;12163;49.316;6.092;2023-02-17T03:28:24;100133.78;;;10.58;90.05
23953;BME280;12163;49.316;6.092;2023-02-17T03:30:51;100138.09;;;10.59;90.31
23953;BME280;12163;49.316;6.092;2023-02-17T03:33:17;100126.75;;;10.62;90.41
23953;BME280;12163;49.316;6.092;2023-02-17T03:35:44;100137.53;;;10.62;89.90
23953;BME280;12163;49.316;6.092;2023-02-17T03:38:11;100143.47;;;10.59;89.79
23953;BME280;12163;49.316;6.092;2023-02-17T03:40:37;100137.53;;;10.62;90.59
23953;BME280;12163;49.316;6.092;2023-02-17T03:43:04;100140.78;;;10.64;89.81
23953;BME280;12163;49.316;6.092;2023-02-17T03:45:30;100143.75;;;10.62;90.36
23953;BME280;12163;49.316;6.092;2023-02-17T03:47:57;100144.03;;;10.66;90.44
23953;BME280;12163;49.316;6.092;2023-02-17T03:50:24;100152.69;;;10.68;89.80
23953;BME280;12163;49.316;6.092;2023-02-17T03:52:50;100148.59;;;10.70;89.85
23953;BME280;12163;49.316;6.092;2023-02-17T03:55:17;100151.31;;;10.70;90.25
23953;BME280;12163;49.316;6.092;2023-02-17T03:57:44;100156.44;;;10.72;90.06
23953;BME280;12163;49.316;6.092;2023-02-17T04:00:11;100159.16;;;10.72;89.74
23953;BME280;12163;49.316;6.092;2023-02-17T04:02:37;100154.28;;;10.74;90.00
23953;BME280;12163;49.316;6.092;2023-02-17T04:05:06;100160.47;;;10.74;90.26
23953;BME280;12163;49.316;6.092;2023-02-17T04:07:33;100176.41;;;10.76;90.13
23953;BME280;12163;49.316;6.092;2023-02-17T04:09:59;100166.41;;;10.76;89.91
23953;BME280;12163;49.316;6.092;2023-02-17T04:12:27;100171.81;;;10.76;89.32
23953;BME280;12163;49.316;6.092;2023-02-17T04:14:54;100171.81;;;10.76;89.85
23953;BME280;12163;49.316;6.092;2023-02-17T04:17:21;100176.94;;;10.78;89.69
23953;BME280;12163;49.316;6.092;2023-02-17T04:19:47;100173.16;;;10.79;89.28
23953;BME280;12163;49.316;6.092;2023-02-17T04:22:14;100166.69;;;10.80;89.79
23953;BME280;12163;49.316;6.092;2023-02-17T04:24:40;100178.31;;;10.80;89.79
23953;BME280;12163;49.316;6.092;2023-02-17T04:27:07;100177.47;;;10.80;89.26
23953;BME280;12163;49.316;6.092;2023-02-17T04:29:34;100184.25;;;10.82;89.19
23953;BME280;12163;49.316;6.092;2023-02-17T04:32:01;100179.09;;;10.81;89.65
23953;BME280;12163;49.316;6.092;2023-02-17T04:34:27;100182.34;;;10.83;89.70
23953;BME280;12163;49.316;6.092;2023-02-17T04:36:54;100183.41;;;10.82;89.84
23953;BME280;12163;49.316;6.092;2023-02-17T04:39:21;100187.75;;;10.83;90.02
23953;BME280;12163;49.316;6.092;2023-02-17T04:41:47;100189.91;;;10.81;89.38
23953;BME280;12163;49.316;6.092;2023-02-17T04:44:14;100192.59;;;10.81;89.84
23953;BME280;12163;49.316;6.092;2023-02-17T04:46:40;100199.63;;;10.82;89.87
23953;BME280;12163;49.316;6.092;2023-02-17T04:49:07;100208.25;;;10.84;89.38
23953;BME280;12163;49.316;6.092;2023-02-17T04:51:34;100216.91;;;10.81;89.70
23953;BME280;12163;49.316;6.092;2023-02-17T04:54:00;100217.44;;;10.78;90.17
23953;BME280;12163;49.316;6.092;2023-02-17T04:56:27;100225.00;;;10.76;90.35
23953;BME280;12163;49.316;6.092;2023-02-17T04:58:53;100229.06;;;10.78;90.48
23953;BME280;12163;49.316;6.092;2023-02-17T05:01:20;100213.13;;;10.77;90.32
23953;BME280;12163;49.316;6.092;2023-02-17T05:03:47;100214.22;;;10.76;90.46
23953;BME280;12163;49.316;6.092;2023-02-17T05:06:13;100218.00;;;10.75;90.47
23953;BME280;12163;49.316;6.092;2023-02-17T05:08:40;100211.25;;;10.77;89.95
23953;BME280;12163;49.316;6.092;2023-02-17T05:11:06;100220.69;;;10.80;90.59
23953;BME280;12163;49.316;6.092;2023-02-17T05:13:33;100230.69;;;10.79;90.14
23953;BME280;12163;49.316;6.092;2023-02-17T05:16:00;100234.72;;;10.82;90.30
23953;BME280;12163;49.316;6.092;2023-02-17T05:18:26;100221.75;;;10.84;90.31
23953;BME280;12163;49.316;6.092;2023-02-17T05:20:53;100211.50;;;10.86;90.38
23953;BME280;12163;49.316;6.092;2023-02-17T05:23:20;100205.84;;;10.87;90.18
23953;BME280;12163;49.316;6.092;2023-02-17T05:25:46;100213.69;;;10.89;89.86
23953;BME280;12163;49.316;6.092;2023-02-17T05:28:13;100203.94;;;10.93;89.79
23953;BME280;12163;49.316;6.092;2023-02-17T05:30:40;100207.97;;;10.95;89.77
23953;BME280;12163;49.316;6.092;2023-02-17T05:33:06;100208.81;;;10.96;89.21
23953;BME280;12163;49.316;6.092;2023-02-17T05:35:36;100201.25;;;10.98;89.39
23953;BME280;12163;49.316;6.092;2023-02-17T05:38:02;100190.44;;;10.98;89.03
23953;BME280;12163;49.316;6.092;2023-02-17T05:40:29;100189.09;;;11.00;88.93
23953;BME280;12163;49.316;6.092;2023-02-17T05:42:56;100194.50;;;11.00;88.80
23953;BME280;12163;49.316;6.092;2023-02-17T05:45:22;100184.50;;;11.01;89.21
23953;BME280;12163;49.316;6.092;2023-02-17T05:47:49;100183.94;;;10.99;89.03
23953;BME280;12163;49.316;6.092;2023-02-17T05:50:16;100174.22;;;10.98;88.81
23953;BME280;12163;49.316;6.092;2023-02-17T05:52:42;100179.91;;;11.01;88.90
23953;BME280;12163;49.316;6.092;2023-02-17T05:55:09;100194.50;;;11.00;89.30
23953;BME280;12163;49.316;6.092;2023-02-17T05:57:35;100183.41;;;11.02;89.16
23953;BME280;12163;49.316;6.092;2023-02-17T06:00:03;100186.09;;;11.17;88.34
23953;BME280;12163;49.316;6.092;2023-02-17T06:02:29;100186.63;;;11.19;88.25
23953;BME280;12163;49.316;6.092;2023-02-17T06:04:56;100182.84;;;11.15;87.49
23953;BME280;12163;49.316;6.092;2023-02-17T06:07:23;100189.34;;;11.14;88.02
23953;BME280;12163;49.316;6.092;2023-02-17T06:09:49;100197.16;;;11.15;88.24
23953;BME280;12163;49.316;6.092;2023-02-17T06:12:16;100205.00;;;11.17;87.64
23953;BME280;12163;49.316;6.092;2023-02-17T06:14:42;100207.13;;;11.25;87.68
23953;BME280;12163;49.316;6.092;2023-02-17T06:17:09;100210.91;;;11.24;87.30
23953;BME280;12163;49.316;6.092;2023-02-17T06:19:36;100207.69;;;11.22;87.45
23953;BME280;12163;49.316;6.092;2023-02-17T06:22:02;100219.28;;;11.17;87.96
23953;BME280;12163;49.316;6.092;2023-02-17T06:24:29;100210.13;;;11.13;88.15
23953;BME280;12163;49.316;6.092;2023-02-17T06:26:55;100219.31;;;11.12;88.54
23953;BME280;12163;49.316;6.092;2023-02-17T06:29:22;100221.75;;;11.14;88.24
23953;BME280;12163;49.316;6.092;2023-02-17T06:31:49;100222.84;;;11.13;88.06
23953;BME280;12163;49.316;6.092;2023-02-17T06:34:15;100218.53;;;11.12;88.90
23953;BME280;12163;49.316;6.092;2023-02-17T06:36:42;100226.06;;;11.10;88.82
23953;BME280;12163;49.316;6.092;2023-02-17T06:39:09;100215.81;;;11.07;89.53
23953;BME280;12163;49.316;6.092;2023-02-17T06:41:36;100225.53;;;11.08;88.92
23953;BME280;12163;49.316;6.092;2023-02-17T06:44:02;100231.22;;;11.06;89.80
23953;BME280;12163;49.316;6.092;2023-02-17T06:46:29;100222.03;;;11.07;89.90
23953;BME280;12163;49.316;6.092;2023-02-17T06:48:56;100235.78;;;11.06;89.69
23953;BME280;12163;49.316;6.092;2023-02-17T06:51:22;100230.38;;;11.06;90.05
23953;BME280;12163;49.316;6.092;2023-02-17T06:53:49;100235.25;;;11.09;90.35
23953;BME280;12163;49.316;6.092;2023-02-17T06:56:15;100243.91;;;11.11;89.86
23953;BME280;12163;49.316;6.092;2023-02-17T06:58:42;100249.31;;;11.11;89.82
23953;BME280;12163;49.316;6.092;2023-02-17T07:01:17;100244.97;;;11.10;89.95
23953;BME280;12163;49.316;6.092;2023-02-17T07:03:44;100269.28;;;11.10;90.27
23953;BME280;12163;49.316;6.092;2023-02-17T07:06:11;100260.63;;;11.08;90.12
23953;BME280;12163;49.316;6.092;2023-02-17T07:08:37;100252.81;;;11.06;90.26
23953;BME280;12163;49.316;6.092;2023-02-17T07:11:09;100247.41;;;11.06;90.48
23953;BME280;12163;49.316;6.092;2023-02-17T07:13:36;100245.50;;;11.07;90.59
23953;BME280;12163;49.316;6.092;2023-02-17T07:16:03;100229.03;;;11.08;90.54
23953;BME280;12163;49.316;6.092;2023-02-17T07:18:31;100231.47;;;11.10;90.88
23953;BME280;12163;49.316;6.092;2023-02-17T07:20:58;100220.66;;;11.10;91.01
23953;BME280;12163;49.316;6.092;2023-02-17T07:23:25;100228.75;;;11.10;90.71
23953;BME280;12163;49.316;6.092;2023-02-17T07:25:51;100242.53;;;11.13;90.83
23953;BME280;12163;49.316;6.092;2023-02-17T07:28:18;100226.06;;;11.15;90.42
23953;BME280;12163;49.316;6.092;2023-02-17T07:30:44;100235.78;;;11.16;90.38
23953;BME280;12163;49.316;6.092;2023-02-17T07:33:11;100242.28;;;11.15;90.84
23953;BME280;12163;49.316;6.092;2023-02-17T07:35:42;100245.78;;;11.15;90.75
23953;BME280;12163;49.316;6.092;2023-02-17T07:38:12;100255.78;;;11.15;90.78
23953;BME280;12163;49.316;6.092;2023-02-17T07:40:39;100252.00;;;11.16;90.78
23953;BME280;12163;49.316;6.092;2023-02-17T07:43:05;100262.81;;;11.16;90.87
23953;BME280;12163;49.316;6.092;2023-02-17T07:45:32;100259.03;;;11.17;91.00
23953;BME280;12163;49.316;6.092;2023-02-17T07:47:59;100261.44;;;11.18;90.98
23953;BME280;12163;49.316;6.092;2023-02-17T07:50:26;100260.09;;;11.21;91.02
23953;BME280;12163;49.316;6.092;2023-02-17T07:52:52;100274.13;;;11.23;90.54
23953;BME280;12163;49.316;6.092;2023-02-17T07:55:19;100269.56;;;11.23;91.04
23953;BME280;12163;49.316;6.092;2023-02-17T07:57:45;100262.00;;;11.25;90.56
23953;BME280;12163;49.316;6.092;2023-02-17T08:00:12;100268.19;;;11.26;90.43
23953;BME280;12163;49.316;6.092;2023-02-17T08:02:39;100275.22;;;11.27;90.79
23953;BME280;12163;49.316;6.092;2023-02-17T08:05:06;100265.50;;;11.26;90.51
23953;BME280;12163;49.316;6.092;2023-02-17T08:07:32;100284.41;;;11.26;90.73
23953;BME280;12163;49.316;6.092;2023-02-17T08:10:00;100295.19;;;11.26;91.16
23953;BME280;12163;49.316;6.092;2023-02-17T08:12:45;100289.00;;;11.20;91.86
23953;BME280;12163;49.316;6.092;2023-02-17T08:15:33;100285.50;;;11.20;91.75
23953;BME280;12163;49.316;6.092;2023-02-17T08:18:00;100286.28;;;11.20;92.48
23953;BME280;12163;49.316;6.092;2023-02-17T08:20:30;100285.22;;;11.21;92.66
23953;BME280;12163;49.316;6.092;2023-02-17T08:22:59;100272.53;;;11.22;92.52
23953;BME280;12163;49.316;6.092;2023-02-17T08:25:26;100267.66;;;11.24;92.20
23953;BME280;12163;49.316;6.092;2023-02-17T08:27:53;100269.81;;;11.27;92.26
23953;BME280;12163;49.316;6.092;2023-02-17T08:30:20;100267.09;;;11.32;92.11
23953;BME280;12163;49.316;6.092;2023-02-17T08:32:47;100278.19;;;11.35;91.76
23953;BME280;12163;49.316;6.092;2023-02-17T08:35:14;100271.97;;;11.35;91.68
23953;BME280;12163;49.316;6.092;2023-02-17T08:37:40;100274.94;;;11.38;91.39
23953;BME280;12163;49.316;6.092;2023-02-17T08:40:08;100280.06;;;11.40;91.68
23953;BME280;12163;49.316;6.092;2023-02-17T08:42:34;100280.88;;;11.40;91.47
23953;BME280;12163;49.316;6.092;2023-02-17T08:45:03;100290.59;;;11.41;90.81
23953;BME280;12163;49.316;6.092;2023-02-17T08:47:30;100277.34;;;11.45;90.79
23953;BME280;12163;49.316;6.092;2023-02-17T08:49:57;100293.56;;;11.45;90.86
23953;BME280;12163;49.316;6.092;2023-02-17T08:52:23;100286.00;;;11.47;90.98
23953;BME280;12163;49.316;6.092;2023-02-17T08:54:50;100291.41;;;11.47;91.43
23953;BME280;12163;49.316;6.092;2023-02-17T08:57:18;100289.22;;;11.49;91.75
23953;BME280;12163;49.316;6.092;2023-02-17T08:59:45;100290.84;;;11.50;91.35
23953;BME280;12163;49.316;6.092;2023-02-17T09:02:15;100303.28;;;11.51;91.74
23953;BME280;12163;49.316;6.092;2023-02-17T09:04:42;100291.69;;;11.50;91.56
23953;BME280;12163;49.316;6.092;2023-02-17T09:07:11;100294.63;;;11.54;92.19
23953;BME280;12163;49.316;6.092;2023-02-17T09:09:39;100306.03;;;11.56;92.00
23953;BME280;12163;49.316;6.092;2023-02-17T09:12:06;100299.53;;;11.57;91.70
23953;BME280;12163;49.316;6.092;2023-02-17T09:14:33;100302.25;;;11.57;92.06
23953;BME280;12163;49.316;6.092;2023-02-17T09:17:00;100286.03;;;11.57;92.00
23953;BME280;12163;49.316;6.092;2023-02-17T09:19:26;100285.19;;;11.56;92.17
23953;BME280;12163;49.316;6.092;2023-02-17T09:21:54;100290.34;;;11.58;92.15
23953;BME280;12163;49.316;6.092;2023-02-17T09:24:21;100291.69;;;11.60;92.64
23953;BME280;12163;49.316;6.092;2023-02-17T09:26:47;100315.22;;;11.60;92.04
23953;BME280;12163;49.316;6.092;2023-02-17T09:29:14;100303.31;;;11.61;92.58
23953;BME280;12163;49.316;6.092;2023-02-17T09:31:41;100298.16;;;11.64;92.74
23953;BME280;12163;49.316;6.092;2023-02-17T09:34:08;100298.16;;;11.64;92.37
23953;BME280;12163;49.316;6.092;2023-02-17T09:36:38;100303.03;;;11.67;92.99
23953;BME280;12163;49.316;6.092;2023-02-17T09:39:05;100316.81;;;11.66;93.02
23953;BME280;12163;49.316;6.092;2023-02-17T09:41:58;100315.19;;;11.65;93.00
23953;BME280;12163;49.316;6.092;2023-02-17T09:44:32;100310.31;;;11.72;92.56
23953;BME280;12163;49.316;6.092;2023-02-17T09:47:09;100325.47;;;11.77;92.81
23953;BME280;12163;49.316;6.092;2023-02-17T09:49:41;100318.41;;;11.81;92.52
23953;BME280;12163;49.316;6.092;2023-02-17T09:52:19;100344.38;;;11.82;91.73
23953;BME280;12163;49.316;6.092;2023-02-17T09:57:48;100330.03;;;11.82;91.75
23953;BME280;12163;49.316;6.092;2023-02-17T10:00:22;100324.59;;;11.82;91.81
23953;BME280;12163;49.316;6.092;2023-02-17T10:02:58;100329.47;;;11.85;92.14
23953;BME280;12163;49.316;6.092;2023-02-17T10:05:31;100341.09;;;11.85;91.31
23953;BME280;12163;49.316;6.092;2023-02-17T10:08:13;100336.25;;;11.87;91.70
23953;BME280;12163;49.316;6.092;2023-02-17T10:13:15;100341.09;;;12.00;91.38
23953;BME280;12163;49.316;6.092;2023-02-17T10:15:47;100344.00;;;12.09;91.34
23953;BME280;12163;49.316;6.092;2023-02-17T10:18:20;100357.78;;;12.17;91.20
23953;BME280;12163;49.316;6.092;2023-02-17T10:21:03;100357.22;;;12.20;90.69
23953;BME280;12163;49.316;6.092;2023-02-17T10:23:33;100372.41;;;12.21;90.38
23953;BME280;12163;49.316;6.092;2023-02-17T10:26:30;100361.00;;;12.19;89.68
23953;BME280;12163;49.316;6.092;2023-02-17T10:29:06;100357.22;;;12.20;89.65
23953;BME280;12163;49.316;6.092;2023-02-17T10:31:45;100363.72;;;12.24;90.19
23953;BME280;12163;49.316;6.092;2023-02-17T10:37:01;100356.97;;;12.22;89.89
23953;BME280;12163;49.316;6.092;2023-02-17T10:39:46;100364.53;;;12.25;90.20
23953;BME280;12163;49.316;6.092;2023-02-17T10:42:21;100354.22;;;12.27;89.60
23953;BME280;12163;49.316;6.092;2023-02-17T10:44:51;100365.84;;;12.32;90.11
23953;BME280;12163;49.316;6.092;2023-02-17T10:47:20;100363.69;;;12.34;89.61
23953;BME280;12163;49.316;6.092;2023-02-17T10:49:49;100355.81;;;12.38;89.65
23953;BME280;12163;49.316;6.092;2023-02-17T10:52:22;100354.19;;;12.42;89.19
23953;BME280;12163;49.316;6.092;2023-02-17T10:54:54;100351.97;;;12.49;89.96
23953;BME280;12163;49.316;6.092;2023-02-17T10:57:27;100356.00;;;12.56;88.91
23953;BME280;12163;49.316;6.092;2023-02-17T10:59:57;100354.09;;;12.62;89.12
23953;BME280;12163;49.316;6.092;2023-02-17T11:02:33;100358.66;;;12.66;89.22
23953;BME280;12163;49.316;6.092;2023-02-17T11:05:00;100345.38;;;12.70;87.91
23953;BME280;12163;49.316;6.092;2023-02-17T11:07:35;100348.59;;;12.72;88.62
23953;BME280;12163;49.316;6.092;2023-02-17T11:10:18;100343.44;;;12.75;88.34
23953;BME280;12163;49.316;6.092;2023-02-17T11:12:45;100345.06;;;12.76;87.76
23953;BME280;12163;49.316;6.092;2023-02-17T11:15:28;100341.81;;;12.74;88.27
23953;BME280;12163;49.316;6.092;2023-02-17T11:17:55;100338.28;;;12.79;88.23
23953;BME280;12163;49.316;6.092;2023-02-17T11:25:52;100345.25;;;12.90;87.83
23953;BME280;12163;49.316;6.092;2023-02-17T11:28:24;100344.72;;;12.93;88.34
23953;BME280;12163;49.316;6.092;2023-02-17T11:30:57;100340.66;;;12.90;88.42
23953;BME280;12163;49.316;6.092;2023-02-17T11:36:00;100331.75;;;12.85;89.08
23953;BME280;12163;49.316;6.092;2023-02-17T11:38:42;100341.75;;;12.84;88.62
23953;BME280;12163;49.316;6.092;2023-02-17T11:41:10;100331.78;;;12.80;88.68
23953;BME280;12163;49.316;6.092;2023-02-17T11:43:38;100336.91;;;12.81;87.83
23953;BME280;12163;49.316;6.092;2023-02-17T11:51:39;100323.88;;;12.83;88.10
23953;BME280;12163;49.316;6.092;2023-02-17T11:54:23;100334.44;;;12.85;88.21
23953;BME280;12163;49.316;6.092;2023-02-17T11:57:23;100335.22;;;12.90;88.29
23953;BME280;12163;49.316;6.092;2023-02-17T12:15:54;100333.00;;;13.02;87.23
23953;BME280;12163;49.316;6.092;2023-02-17T12:32:47;100327.00;;;13.10;86.75
23953;BME280;12163;49.316;6.092;2023-02-17T12:35:25;100335.34;;;13.14;86.28
23953;BME280;12163;49.316;6.092;2023-02-17T12:38:01;100325.91;;;13.11;86.43
23953;BME280;12163;49.316;6.092;2023-02-17T12:40:38;100323.47;;;13.10;85.23
23953;BME280;12163;49.316;6.092;2023-02-17T12:43:24;100314.56;;;13.04;85.79
23953;BME280;12163;49.316;6.092;2023-02-17T12:45:55;100323.22;;;13.06;85.69
23953;BME280;12163;49.316;6.092;2023-02-17T12:48:38;100315.59;;;13.08;86.04
23953;BME280;12163;49.316;6.092;2023-02-17T12:51:10;100311.78;;;13.09;86.00
23953;BME280;12163;49.316;6.092;2023-02-17T12:54:38;100317.31;;;12.99;85.78
23953;BME280;12163;49.316;6.092;2023-02-17T12:59:32;100331.41;;;12.96;86.60
23953;BME280;12163;49.316;6.092;2023-02-17T13:02:02;100329.25;;;12.98;86.91
23953;BME280;12163;49.316;6.092;2023-02-17T13:04:31;100323.56;;;12.95;86.37
23953;BME280;12163;49.316;6.092;2023-02-17T13:07:07;100331.16;;;12.88;86.31
23953;BME280;12163;49.316;6.092;2023-02-17T13:09:41;100331.44;;;12.86;86.59
23953;BME280;12163;49.316;6.092;2023-02-17T13:12:36;100332.03;;;12.78;87.31
23953;BME280;12163;49.316;6.092;2023-02-17T13:15:28;100323.38;;;12.76;87.31
23953;BME280;12163;49.316;6.092;2023-02-17T13:18:11;100325.00;;;12.77;86.96
23953;BME280;12163;49.316;6.092;2023-02-17T13:26:22;100313.38;;;12.72;87.82
23953;BME280;12163;49.316;6.092;2023-02-17T13:28:51;100325.00;;;12.77;88.27
23953;BME280;12163;49.316;6.092;2023-02-17T13:31:25;100329.88;;;12.80;88.12
23953;BME280;12163;49.316;6.092;2023-02-17T13:33:56;100328.72;;;12.86;87.82
23953;BME280;12163;49.316;6.092;2023-02-17T13:41:55;100318.50;;;12.78;86.83
23953;BME280;12163;49.316;6.092;2023-02-17T13:44:39;100342.09;;;12.78;87.20
23953;BME280;12163;49.316;6.092;2023-02-17T13:47:30;100334.75;;;12.78;87.24
23953;BME280;12163;49.316;6.092;2023-02-17T13:50:03;100327.16;;;12.80;88.01
23953;BME280;12163;49.316;6.092;2023-02-17T13:52:31;100335.28;;;12.80;87.35
23953;BME280;12163;49.316;6.092;2023-02-17T13:55:03;100323.13;;;12.78;87.35
23953;BME280;12163;49.316;6.092;2023-02-17T13:57:35;100319.03;;;12.80;88.05
23953;BME280;12163;49.316;6.092;2023-02-17T14:05:26;100302.50;;;12.82;87.23
23953;BME280;12163;49.316;6.092;2023-02-17T14:07:58;100299.28;;;12.80;87.71
23953;BME280;12163;49.316;6.092;2023-02-17T14:10:26;100301.41;;;12.83;88.03
23953;BME280;12163;49.316;6.092;2023-02-17T14:12:53;100301.13;;;12.84;87.37
23953;BME280;12163;49.316;6.092;2023-02-17T14:15:23;100295.75;;;12.79;87.28
23953;BME280;12163;49.316;6.092;2023-02-17T14:17:50;100297.34;;;12.80;87.19
23953;BME280;12163;49.316;6.092;2023-02-17T14:20:33;100287.09;;;12.77;87.46
23953;BME280;12163;49.316;6.092;2023-02-17T14:25:34;100297.34;;;12.80;87.26
23953;BME280;12163;49.316;6.092;2023-02-17T14:28:03;100289.00;;;12.77;87.30
23953;BME280;12163;49.316;6.092;2023-02-17T14:30:31;100281.41;;;12.74;88.18
23953;BME280;12163;49.316;6.092;2023-02-17T14:35:30;100265.16;;;12.74;87.60
23953;BME280;12163;49.316;6.092;2023-02-17T14:38:18;100271.41;;;12.74;88.47
23953;BME280;12163;49.316;6.092;2023-02-17T14:40:46;100265.16;;;12.74;87.96
23953;BME280;12163;49.316;6.092;2023-02-17T14:43:13;100261.72;;;12.68;87.99